Time;durP1;ratioP1;P1;durP2;ratioP2;P2;SDS_P1;SDS_P2;PMS_P1;PMS_P2;Temp;Humidity;BMP_temperature;BMP_pressure;BME280_temperature;BME280_humidity;BME280_pressure;Samples;Min_cycle;Max_cycle;Signal;HPM_P1;HPM_P2
2020/12/17 00:00:22;;;;;;;19.10;10.03;;;9.70;91.60;;;;;;4896491;29;20459;-93
2020/12/17 00:02:48;;;;;;;19.27;10.33;;;9.80;91.50;;;;;;4888849;29;20037;-93
2020/12/17 00:05:14;;;;;;;19.73;10.10;;;9.80;91.30;;;;;;4888312;29;20036;-93
2020/12/17 00:07:40;;;;;;;19.60;11.43;;;9.80;91.50;;;;;;4892364;29;20032;-93
2020/12/17 00:10:07;;;;;;;17.93;9.63;;;9.80;91.50;;;;;;4891952;29;20044;-92
2020/12/17 00:12:44;;;;;;;19.20;10.07;;;9.80;91.40;;;;;;4891223;29;20506;-93
2020/12/17 00:15:13;;;;;;;19.43;10.10;;;9.80;91.50;;;;;;4889991;29;20025;-93
2020/12/17 00:17:48;;;;;;;19.47;10.40;;;9.80;91.50;;;;;;4891029;29;20386;-91
2020/12/17 00:20:19;;;;;;;21.43;10.10;;;9.80;91.50;;;;;;4890819;29;20068;-93
2020/12/17 00:22:45;;;;;;;18.47;9.60;;;9.80;91.60;;;;;;4890616;29;20024;-93
2020/12/17 00:25:13;;;;;;;19.80;9.80;;;9.80;91.50;;;;;;4872268;29;20044;-91
2020/12/17 00:27:41;;;;;;;20.33;10.00;;;9.70;91.50;;;;;;4872304;29;20025;-93
2020/12/17 00:30:13;;;;;;;19.67;9.70;;;9.70;91.50;;;;;;4871370;29;20026;-93
2020/12/17 00:32:40;;;;;;;21.93;10.33;;;9.80;91.60;;;;;;4870862;29;20048;-93
2020/12/17 00:35:07;;;;;;;21.83;10.60;;;9.70;91.50;;;;;;4871167;29;20050;-93
2020/12/17 00:37:33;;;;;;;18.77;10.40;;;9.70;91.40;;;;;;4870990;29;20036;-93
2020/12/17 00:40:00;;;;;;;19.63;9.90;;;9.80;91.50;;;;;;4871157;29;20207;-93
2020/12/17 00:42:25;;;;;;;18.73;10.40;;;9.80;91.60;;;;;;4870488;29;20124;-93
2020/12/17 00:44:51;;;;;;;20.77;11.43;;;9.80;91.50;;;;;;4870895;29;20075;-93
2020/12/17 00:47:17;;;;;;;20.47;9.83;;;9.80;91.50;;;;;;4870648;29;20069;-93
2020/12/17 00:49:43;;;;;;;20.80;10.73;;;9.80;91.40;;;;;;4868472;29;20029;-93
2020/12/17 00:52:09;;;;;;;18.05;9.60;;;9.80;91.50;;;;;;4870980;29;20033;-93
2020/12/17 00:54:38;;;;;;;20.23;10.02;;;9.80;91.60;;;;;;4871213;29;20062;-94
2020/12/17 00:57:03;;;;;;;19.17;9.73;;;9.80;91.50;;;;;;4870213;29;20039;-93
2020/12/17 00:59:29;;;;;;;21.00;10.50;;;9.80;91.50;;;;;;4870761;29;20068;-93
2020/12/17 01:01:54;;;;;;;18.63;9.87;;;9.80;91.60;;;;;;4889275;29;20106;-93
2020/12/17 01:04:20;;;;;;;19.92;10.60;;;9.80;91.50;;;;;;4873601;29;20085;-93
2020/12/17 01:06:45;;;;;;;19.33;10.60;;;9.80;91.30;;;;;;4871001;29;20474;-93
2020/12/17 01:09:11;;;;;;;19.00;9.40;;;9.80;91.40;;;;;;4872107;29;20032;-92
2020/12/17 01:11:37;;;;;;;21.77;10.23;;;9.80;91.70;;;;;;4871023;29;20037;-93
2020/12/17 01:14:03;;;;;;;20.77;10.90;;;9.80;91.40;;;;;;4871156;29;20040;-94
2020/12/17 01:16:29;;;;;;;19.20;10.75;;;9.80;91.40;;;;;;4871131;29;20040;-93
2020/12/17 01:18:55;;;;;;;19.20;9.87;;;9.80;91.50;;;;;;4871403;29;20033;-93
2020/12/17 01:21:21;;;;;;;21.50;10.45;;;9.80;91.40;;;;;;4870884;29;20029;-93
2020/12/17 01:23:47;;;;;;;18.85;10.38;;;9.80;91.50;;;;;;4871427;29;20104;-93
2020/12/17 01:26:12;;;;;;;19.67;10.03;;;9.80;91.60;;;;;;4871643;29;20052;-93
2020/12/17 01:28:41;;;;;;;19.42;10.63;;;9.80;91.60;;;;;;4871597;29;20069;-93
2020/12/17 01:31:11;;;;;;;19.48;9.93;;;9.80;91.60;;;;;;4871199;29;20032;-93
2020/12/17 01:33:37;;;;;;;18.65;9.38;;;9.70;91.70;;;;;;4870788;29;20033;-94
2020/12/17 01:36:08;;;;;;;19.60;9.77;;;9.70;91.70;;;;;;4871213;29;20025;-93
2020/12/17 01:38:35;;;;;;;19.00;9.88;;;9.80;91.70;;;;;;4869857;29;20048;-93
2020/12/17 01:41:00;;;;;;;18.98;9.95;;;9.70;91.70;;;;;;4870310;29;20040;-93
2020/12/17 01:43:26;;;;;;;20.02;10.25;;;9.70;91.70;;;;;;4869897;29;20041;-94
2020/12/17 01:45:53;;;;;;;20.10;10.45;;;9.80;91.70;;;;;;4870260;29;20483;-93
2020/12/17 01:48:19;;;;;;;20.92;10.55;;;9.80;91.60;;;;;;4870196;29;20086;-93
2020/12/17 01:50:47;;;;;;;22.35;11.02;;;9.80;91.70;;;;;;4869691;29;20071;-93
2020/12/17 01:53:13;;;;;;;19.38;10.65;;;9.80;91.70;;;;;;4869613;29;20095;-92
2020/12/17 01:55:39;;;;;;;20.33;10.25;;;9.80;91.80;;;;;;4870255;29;20025;-93
2020/12/17 01:58:07;;;;;;;20.47;10.30;;;9.70;91.70;;;;;;4870666;29;20116;-94
2020/12/17 02:00:37;;;;;;;19.17;10.10;;;9.70;91.70;;;;;;4868922;29;20089;-93
2020/12/17 02:03:04;;;;;;;19.63;10.18;;;9.70;91.70;;;;;;4868851;29;20048;-94
2020/12/17 02:05:31;;;;;;;22.83;10.60;;;9.70;91.70;;;;;;4869725;29;20032;-93
2020/12/17 02:07:58;;;;;;;19.20;10.23;;;9.70;91.70;;;;;;4869304;29;20033;-93
2020/12/17 02:10:24;;;;;;;20.20;10.10;;;9.70;91.80;;;;;;4869057;29;20025;-93
2020/12/17 02:12:50;;;;;;;19.40;10.00;;;9.70;91.70;;;;;;4868524;29;20062;-93
2020/12/17 02:15:17;;;;;;;19.98;10.00;;;9.70;91.80;;;;;;4869783;29;20037;-93
2020/12/17 02:17:43;;;;;;;20.52;10.52;;;9.70;91.80;;;;;;4870060;29;20029;-92
2020/12/17 02:20:11;;;;;;;19.10;10.20;;;9.70;91.80;;;;;;4869653;29;20037;-93
2020/12/17 02:22:36;;;;;;;19.17;10.30;;;9.70;91.80;;;;;;4868736;29;20036;-93
2020/12/17 02:25:09;;;;;;;19.25;9.52;;;9.70;91.80;;;;;;4868839;29;20089;-94
2020/12/17 02:27:35;;;;;;;19.80;9.80;;;9.80;91.70;;;;;;4868538;29;20029;-93
2020/12/17 02:30:01;;;;;;;19.87;10.17;;;9.80;91.70;;;;;;4868112;29;20097;-93
2020/12/17 02:32:26;;;;;;;20.80;9.50;;;9.80;91.70;;;;;;4868948;29;20037;-93
2020/12/17 02:34:52;;;;;;;19.50;10.00;;;9.80;91.70;;;;;;4870126;29;20037;-93
2020/12/17 02:37:17;;;;;;;19.80;10.63;;;9.80;91.80;;;;;;4871514;29;20025;-92
2020/12/17 02:39:43;;;;;;;19.70;10.17;;;9.80;91.70;;;;;;4881259;29;20037;-93
2020/12/17 02:42:09;;;;;;;17.63;9.80;;;9.70;91.80;;;;;;4869928;29;20510;-92
2020/12/17 02:44:35;;;;;;;18.48;9.15;;;9.70;91.80;;;;;;4869140;29;20120;-92
2020/12/17 02:47:01;;;;;;;21.38;9.75;;;9.80;91.80;;;;;;4868706;29;20028;-93
2020/12/17 02:49:26;;;;;;;20.27;10.55;;;9.80;91.80;;;;;;4868383;29;20033;-92
2020/12/17 02:51:52;;;;;;;19.30;10.25;;;9.80;91.60;;;;;;4867888;29;20096;-93
2020/12/17 02:54:18;;;;;;;19.42;10.27;;;9.80;91.70;;;;;;4868285;29;20064;-94
2020/12/17 02:56:43;;;;;;;19.75;9.68;;;9.80;92.00;;;;;;4868566;29;20044;-93
2020/12/17 02:59:09;;;;;;;19.90;9.97;;;9.80;91.70;;;;;;4868203;29;20029;-93
2020/12/17 03:01:35;;;;;;;19.92;9.85;;;9.80;91.60;;;;;;4867231;29;20056;-92
2020/12/17 03:04:00;;;;;;;20.85;10.52;;;9.80;91.60;;;;;;4864560;29;20069;-93
2020/12/17 03:06:26;;;;;;;19.70;10.83;;;9.80;91.60;;;;;;4848925;29;20045;-93
2020/12/17 03:08:51;;;;;;;19.85;9.60;;;9.80;91.50;;;;;;4864649;29;20041;-92
2020/12/17 03:11:17;;;;;;;19.75;9.23;;;9.80;91.60;;;;;;4865371;29;20190;-92
2020/12/17 03:13:42;;;;;;;20.83;10.00;;;9.70;91.60;;;;;;4864800;29;20127;-92
2020/12/17 03:16:08;;;;;;;19.33;9.80;;;9.70;91.70;;;;;;4864735;29;20029;-93
2020/12/17 03:18:34;;;;;;;17.42;9.18;;;9.70;91.70;;;;;;4864062;29;20029;-92
2020/12/17 03:20:59;;;;;;;20.50;10.03;;;9.70;91.80;;;;;;4863917;29;20034;-93
2020/12/17 03:23:25;;;;;;;18.73;9.27;;;9.70;91.60;;;;;;4863599;29;20034;-92
2020/12/17 03:25:50;;;;;;;20.30;10.07;;;9.70;91.70;;;;;;4864095;29;20059;-93
2020/12/17 03:28:16;;;;;;;20.10;9.47;;;9.70;91.70;;;;;;4863853;29;20492;-92
2020/12/17 03:30:41;;;;;;;19.92;9.60;;;9.70;91.70;;;;;;4862542;29;20396;-93
2020/12/17 03:33:07;;;;;;;18.10;9.48;;;9.70;91.70;;;;;;4863189;29;20033;-92
2020/12/17 03:35:33;;;;;;;18.02;8.60;;;9.70;91.60;;;;;;4863622;29;20056;-92
2020/12/17 03:37:58;;;;;;;20.73;9.60;;;9.80;91.80;;;;;;4862708;29;20075;-92
2020/12/17 03:40:28;;;;;;;18.65;9.02;;;9.70;91.70;;;;;;4861575;29;20029;-92
2020/12/17 03:42:55;;;;;;;19.73;9.20;;;9.70;91.60;;;;;;4863349;29;20029;-93
2020/12/17 03:45:21;;;;;;;18.77;9.53;;;9.70;91.70;;;;;;4862820;29;20128;-92
2020/12/17 03:47:47;;;;;;;17.88;9.20;;;9.70;91.70;;;;;;4863426;29;20052;-92
2020/12/17 03:50:13;;;;;;;19.58;9.82;;;9.70;91.70;;;;;;4862306;29;20036;-93
2020/12/17 03:52:39;;;;;;;17.73;8.93;;;9.70;91.70;;;;;;4862980;29;20033;-93
2020/12/17 03:55:05;;;;;;;20.73;9.23;;;9.80;91.70;;;;;;4862216;29;20396;-93
2020/12/17 03:57:32;;;;;;;20.20;9.63;;;9.70;91.60;;;;;;4863349;29;20029;-92
2020/12/17 03:59:57;;;;;;;18.73;9.05;;;9.70;91.60;;;;;;4863715;29;20029;-92
2020/12/17 04:02:23;;;;;;;20.35;9.32;;;9.80;91.60;;;;;;4862351;29;20040;-92
2020/12/17 04:04:48;;;;;;;18.45;9.32;;;9.80;91.60;;;;;;4862159;29;20082;-92
2020/12/17 04:07:15;;;;;;;19.57;8.73;;;9.80;91.60;;;;;;4862454;29;20036;-92
2020/12/17 04:09:41;;;;;;;18.77;8.43;;;9.80;91.60;;;;;;4862846;29;20041;-93
2020/12/17 04:12:06;;;;;;;20.03;9.47;;;9.80;91.60;;;;;;4862907;29;20488;-92
2020/12/17 04:14:32;;;;;;;20.05;9.15;;;9.80;91.50;;;;;;4863012;29;20029;-92
2020/12/17 04:16:58;;;;;;;20.53;9.67;;;9.80;91.50;;;;;;4863383;29;20444;-92
2020/12/17 04:19:23;;;;;;;18.85;9.00;;;9.80;91.60;;;;;;4863900;29;20048;-92
2020/12/17 04:21:49;;;;;;;19.48;9.02;;;9.80;91.60;;;;;;4862190;29;20026;-93
2020/12/17 04:24:14;;;;;;;17.35;9.07;;;9.80;91.60;;;;;;4862367;29;20091;-92
2020/12/17 04:26:40;;;;;;;20.27;9.75;;;9.80;91.60;;;;;;4862495;29;20041;-92
2020/12/17 04:29:06;;;;;;;19.40;9.15;;;9.80;91.50;;;;;;4862928;29;20508;-93
2020/12/17 04:31:31;;;;;;;19.40;8.88;;;9.80;91.90;;;;;;4864283;29;20040;-92
2020/12/17 04:33:57;;;;;;;18.40;9.23;;;9.80;91.60;;;;;;4864730;29;20124;-92
2020/12/17 04:36:23;;;;;;;18.05;8.65;;;9.80;91.60;;;;;;4864072;29;20450;-93
2020/12/17 04:38:49;;;;;;;18.67;8.93;;;9.80;91.60;;;;;;4864109;29;20040;-93
2020/12/17 04:41:18;;;;;;;20.80;9.37;;;9.80;91.70;;;;;;4862509;29;20124;-93
2020/12/17 04:43:44;;;;;;;17.55;9.05;;;9.80;91.70;;;;;;4863203;29;20407;-93
2020/12/17 04:46:14;;;;;;;18.70;8.67;;;9.80;91.70;;;;;;4861724;29;20121;-93
2020/12/17 04:48:42;;;;;;;19.55;8.93;;;9.80;91.70;;;;;;4862474;29;20026;-93
2020/12/17 04:51:08;;;;;;;18.75;9.13;;;9.80;91.80;;;;;;4862193;29;20033;-93
2020/12/17 04:53:37;;;;;;;18.42;9.20;;;9.70;91.80;;;;;;4865514;29;20033;-92
2020/12/17 04:56:03;;;;;;;18.50;9.10;;;9.80;91.80;;;;;;4865733;29;20082;-92
2020/12/17 04:58:31;;;;;;;19.93;9.13;;;9.80;91.80;;;;;;4865619;29;20034;-93
2020/12/17 05:00:57;;;;;;;18.75;8.80;;;9.80;91.80;;;;;;4866310;29;20086;-93
2020/12/17 05:03:24;;;;;;;16.05;7.78;;;9.70;92.10;;;;;;4865957;29;20062;-93
2020/12/17 05:05:52;;;;;;;18.15;8.10;;;9.80;91.80;;;;;;4867439;29;20030;-94
2020/12/17 05:08:22;;;;;;;18.05;8.32;;;9.80;91.80;;;;;;4866183;29;20029;-93
2020/12/17 05:10:48;;;;;;;19.23;7.82;;;9.80;91.80;;;;;;4866852;29;20515;-92
2020/12/17 05:13:16;;;;;;;17.40;7.60;;;9.70;91.80;;;;;;4867974;29;20519;-93
2020/12/17 05:15:42;;;;;;;18.47;7.70;;;9.80;91.80;;;;;;4868445;29;20034;-92
2020/12/17 05:18:07;;;;;;;16.97;8.00;;;9.80;91.80;;;;;;4878157;29;20032;-92
2020/12/17 05:20:36;;;;;;;16.93;7.67;;;9.80;91.80;;;;;;4869343;29;20029;-93
2020/12/17 05:23:04;;;;;;;16.25;7.18;;;9.80;91.80;;;;;;4866619;29;20057;-92
2020/12/17 05:25:30;;;;;;;19.67;8.37;;;9.80;91.80;;;;;;4866736;29;20475;-92
2020/12/17 05:27:56;;;;;;;17.73;7.80;;;9.80;91.70;;;;;;4866942;29;20049;-92
2020/12/17 05:30:31;;;;;;;17.10;8.10;;;9.80;91.70;;;;;;4867076;29;20449;-93
2020/12/17 05:32:58;;;;;;;18.47;7.77;;;9.80;91.70;;;;;;4866833;29;20033;-92
2020/12/17 05:35:23;;;;;;;17.08;7.80;;;9.80;91.70;;;;;;4867079;29;20446;-93
2020/12/17 05:37:49;;;;;;;17.67;8.20;;;9.80;91.70;;;;;;4866901;29;20025;-93
2020/12/17 05:40:15;;;;;;;17.00;7.87;;;9.80;91.70;;;;;;4866749;29;20037;-93
2020/12/17 05:42:41;;;;;;;17.60;8.20;;;9.80;91.70;;;;;;4866881;29;20089;-93
2020/12/17 05:45:26;;;;;;;16.93;7.70;;;9.80;91.70;;;;;;4867016;29;20101;-91
2020/12/17 05:48:14;;;;;;;18.17;8.70;;;9.80;91.60;;;;;;4869544;29;20037;-92
2020/12/17 05:50:58;;;;;;;19.20;8.23;;;9.80;91.50;;;;;;4867929;29;20051;-91
2020/12/17 05:53:31;;;;;;;17.60;7.47;;;9.80;91.60;;;;;;4867492;29;20037;-88
2020/12/17 05:56:15;;;;;;;17.47;7.83;;;9.80;91.70;;;;;;4869750;29;20033;-86
2020/12/17 05:58:43;;;;;;;17.73;7.43;;;9.80;91.60;;;;;;4869137;29;20064;-85
2020/12/17 06:01:19;;;;;;;16.90;7.60;;;9.80;91.70;;;;;;4866937;29;20449;-83
2020/12/17 06:03:45;;;;;;;17.07;7.70;;;9.80;91.60;;;;;;4866534;29;20061;-85
2020/12/17 06:06:12;;;;;;;17.13;7.00;;;9.90;91.60;;;;;;4871549;29;20326;-81
2020/12/17 06:08:41;;;;;;;15.93;7.00;;;9.90;91.60;;;;;;4869372;29;20033;-81
2020/12/17 06:11:09;;;;;;;17.35;7.00;;;9.90;91.60;;;;;;4868612;29;20090;-81
2020/12/17 06:13:39;;;;;;;16.13;6.63;;;9.90;91.50;;;;;;4866661;29;20476;-82
2020/12/17 06:16:07;;;;;;;14.63;5.93;;;9.90;91.50;;;;;;4868814;29;20029;-81
2020/12/17 06:18:45;;;;;;;16.42;6.28;;;10.00;91.50;;;;;;4868047;29;20029;-80
2020/12/17 06:21:11;;;;;;;14.95;5.78;;;10.00;91.40;;;;;;4865795;29;20033;-80
2020/12/17 06:23:38;;;;;;;17.20;6.10;;;10.10;91.40;;;;;;4866031;29;20054;-82
2020/12/17 06:26:08;;;;;;;12.90;5.88;;;10.10;91.40;;;;;;4867655;29;20395;-80
2020/12/17 06:28:45;;;;;;;14.87;5.90;;;10.10;91.30;;;;;;4865890;29;20056;-81
2020/12/17 06:31:15;;;;;;;13.43;5.33;;;10.10;91.20;;;;;;4866814;29;20033;-80
2020/12/17 06:33:41;;;;;;;14.70;5.30;;;10.20;91.20;;;;;;4852534;29;20556;-79
2020/12/17 06:36:25;;;;;;;15.20;5.80;;;10.20;91.10;;;;;;4855701;29;20098;-78
2020/12/17 06:38:50;;;;;;;11.68;4.78;;;10.20;91.00;;;;;;4851459;29;20045;-79
2020/12/17 06:41:18;;;;;;;13.95;5.43;;;10.20;91.00;;;;;;4847938;29;20041;-79
2020/12/17 06:43:44;;;;;;;13.93;5.55;;;10.30;91.00;;;;;;4845774;29;20503;-79
2020/12/17 06:46:31;;;;;;;13.87;5.57;;;10.30;91.00;;;;;;4847862;29;20042;-80
2020/12/17 06:48:58;;;;;;;16.30;5.90;;;10.30;90.90;;;;;;4846048;29;20044;-80
2020/12/17 06:51:29;;;;;;;14.85;5.30;;;10.40;90.90;;;;;;4845884;29;20106;-81
2020/12/17 06:53:55;;;;;;;18.17;5.97;;;10.40;91.00;;;;;;4848371;29;20099;-81
2020/12/17 06:56:21;;;;;;;14.60;5.53;;;10.40;90.90;;;;;;4838585;29;20058;-81
2020/12/17 06:58:46;;;;;;;14.35;5.50;;;10.40;90.90;;;;;;4844803;29;20026;-80
2020/12/17 07:01:21;;;;;;;13.00;5.32;;;10.40;90.90;;;;;;4847567;29;20030;-85
2020/12/17 07:03:48;;;;;;;14.73;5.82;;;10.40;90.90;;;;;;4861778;29;20094;-85
2020/12/17 07:06:19;;;;;;;13.43;6.07;;;10.40;90.90;;;;;;4861643;29;20389;-86
2020/12/17 07:08:49;;;;;;;16.23;5.43;;;10.40;90.90;;;;;;4867765;29;20061;-86
2020/12/17 07:11:44;;;;;;;13.43;5.18;;;10.40;90.90;;;;;;4865938;29;20058;-87
2020/12/17 07:14:17;;;;;;;13.82;4.82;;;10.40;90.90;;;;;;4848573;29;20064;-86
2020/12/17 07:16:58;;;;;;;16.35;5.43;;;10.40;90.90;;;;;;4833935;29;20029;-85
2020/12/17 07:19:42;;;;;;;15.90;6.00;;;10.40;90.90;;;;;;4849909;29;20053;-87
2020/12/17 07:22:14;;;;;;;16.48;5.30;;;10.40;90.80;;;;;;4859632;29;20030;-83
2020/12/17 07:24:51;;;;;;;15.32;5.72;;;10.40;90.90;;;;;;4849188;29;20037;-84
2020/12/17 07:27:18;;;;;;;15.80;5.40;;;10.40;90.80;;;;;;4849643;29;20049;-85
2020/12/17 07:29:48;;;;;;;12.73;5.15;;;10.50;90.80;;;;;;4849144;29;20041;-85
2020/12/17 07:32:27;;;;;;;12.90;5.40;;;10.40;90.80;;;;;;4850614;29;20044;-81
2020/12/17 07:34:58;;;;;;;16.27;5.60;;;10.40;90.80;;;;;;4867400;29;20480;-84
2020/12/17 07:37:34;;;;;;;13.35;5.80;;;10.50;90.70;;;;;;4847865;29;20062;-83
2020/12/17 07:40:04;;;;;;;14.23;6.13;;;10.50;90.80;;;;;;4834252;29;20065;-84
2020/12/17 07:42:30;;;;;;;16.40;5.80;;;10.50;90.70;;;;;;4845632;29;20041;-81
2020/12/17 07:44:56;;;;;;;15.38;5.88;;;10.50;90.80;;;;;;4846329;29;20037;-82
2020/12/17 07:47:22;;;;;;;13.73;5.55;;;10.50;90.80;;;;;;4866062;29;20037;-81
2020/12/17 07:49:48;;;;;;;15.95;5.70;;;10.50;90.80;;;;;;4867761;29;20449;-82
2020/12/17 07:52:33;;;;;;;16.33;6.32;;;10.50;90.70;;;;;;4851811;29;20033;-82
2020/12/17 07:55:00;;;;;;;16.27;6.30;;;10.50;90.70;;;;;;4847107;29;20071;-81
2020/12/17 07:57:26;;;;;;;16.45;6.40;;;10.50;90.80;;;;;;4844859;29;20030;-82
2020/12/17 07:59:51;;;;;;;26.52;11.23;;;10.50;90.80;;;;;;4845768;29;20381;-81
2020/12/17 08:02:17;;;;;;;17.95;7.20;;;10.60;90.90;;;;;;4860121;29;20033;-80
2020/12/17 08:04:48;;;;;;;18.80;7.55;;;10.60;90.90;;;;;;4865028;29;20057;-82
2020/12/17 08:07:14;;;;;;;19.10;8.43;;;10.60;90.90;;;;;;4870435;29;20116;-82
2020/12/17 08:09:39;;;;;;;18.08;7.13;;;10.60;91.00;;;;;;4866012;29;20086;-83
2020/12/17 08:12:09;;;;;;;17.40;7.65;;;10.50;91.00;;;;;;4877899;29;20033;-83
2020/12/17 08:14:34;;;;;;;17.17;7.55;;;10.50;91.20;;;;;;4868939;29;20033;-85
2020/12/17 08:17:05;;;;;;;20.00;8.73;;;10.50;91.20;;;;;;4887122;29;20033;-85
2020/12/17 08:19:30;;;;;;;17.13;7.60;;;10.50;91.50;;;;;;4886339;29;20029;-83
2020/12/17 08:21:58;;;;;;;19.02;7.65;;;10.50;91.40;;;;;;4866490;29;20040;-85
2020/12/17 08:24:32;;;;;;;17.40;7.38;;;10.50;91.30;;;;;;4889680;29;20033;-83
2020/12/17 08:26:58;;;;;;;19.33;8.13;;;10.50;91.40;;;;;;4874223;29;20051;-78
2020/12/17 08:29:24;;;;;;;18.53;8.07;;;10.50;91.40;;;;;;4897691;29;20029;-84
2020/12/17 08:31:51;;;;;;;16.55;7.50;;;10.50;91.50;;;;;;4862868;29;20030;-89
2020/12/17 08:34:16;;;;;;;18.08;7.43;;;10.50;91.60;;;;;;4847691;29;20038;-89
2020/12/17 08:36:48;;;;;;;18.13;7.70;;;10.50;91.50;;;;;;4852362;29;20040;-94
2020/12/17 08:39:17;;;;;;;18.17;8.63;;;10.40;91.50;;;;;;4869964;29;20029;-94
2020/12/17 08:41:47;;;;;;;16.67;7.50;;;10.40;91.60;;;;;;4862181;29;20034;-93
2020/12/17 08:44:16;;;;;;;18.65;8.35;;;10.40;91.90;;;;;;4885998;29;20061;-93
2020/12/17 08:46:53;;;;;;;18.65;8.15;;;10.30;91.90;;;;;;4894218;29;20044;-93
2020/12/17 08:49:22;;;;;;;20.45;7.88;;;10.30;91.90;;;;;;4894100;29;20511;-93
2020/12/17 08:51:48;;;;;;;16.50;7.78;;;10.20;92.10;;;;;;4898639;29;20491;-93
2020/12/17 08:54:43;;;;;;;16.15;7.47;;;10.20;92.10;;;;;;4902776;29;20071;-92
2020/12/17 08:57:11;;;;;;;14.70;7.13;;;10.20;92.20;;;;;;4872792;29;20503;-93
2020/12/17 08:59:37;;;;;;;17.95;7.57;;;10.20;92.20;;;;;;4883009;29;20025;-92
2020/12/17 09:02:03;;;;;;;14.77;6.88;;;10.20;92.10;;;;;;4882133;29;20077;-89
2020/12/17 09:04:29;;;;;;;14.75;6.82;;;10.20;92.20;;;;;;4873447;29;20045;-92
2020/12/17 09:06:59;;;;;;;15.23;6.85;;;10.20;92.20;;;;;;4881564;29;20108;-90
2020/12/17 09:09:27;;;;;;;14.45;7.22;;;10.20;92.20;;;;;;4879154;29;20304;-92
2020/12/17 09:11:56;;;;;;;16.02;7.25;;;10.10;92.30;;;;;;4877837;29;20031;-92
2020/12/17 09:14:29;;;;;;;15.82;7.18;;;10.10;92.40;;;;;;4877206;29;20039;-92
2020/12/17 09:17:16;;;;;;;16.55;7.00;;;10.10;92.50;;;;;;4879055;29;20032;-92
2020/12/17 09:19:47;;;;;;;14.73;6.93;;;10.10;92.60;;;;;;4880077;29;20088;-92
2020/12/17 09:22:20;;;;;;;16.80;7.67;;;10.10;92.50;;;;;;4875776;29;20494;-92
2020/12/17 09:24:49;;;;;;;17.10;8.07;;;10.10;92.50;;;;;;4876629;29;20048;-93
2020/12/17 09:27:23;;;;;;;16.67;7.43;;;10.10;92.60;;;;;;4883033;29;20033;-94
2020/12/17 09:30:15;;;;;;;15.47;7.00;;;10.10;92.60;;;;;;4882073;29;20064;-93
2020/12/17 09:33:01;;;;;;;15.70;7.20;;;10.10;92.50;;;;;;4886071;29;20069;-93
2020/12/17 09:35:36;;;;;;;15.93;7.07;;;10.10;92.60;;;;;;4883760;29;20124;-93
2020/12/17 09:38:11;;;;;;;15.03;6.87;;;10.00;92.60;;;;;;4871688;29;20049;-91
2020/12/17 09:40:40;;;;;;;15.93;6.40;;;10.00;92.60;;;;;;4886224;29;20037;-93
2020/12/17 09:43:14;;;;;;;14.77;6.57;;;10.00;92.70;;;;;;4883437;29;20038;-93
2020/12/17 09:45:41;;;;;;;15.37;6.80;;;10.00;92.60;;;;;;4886060;29;20056;-91
2020/12/17 09:48:17;;;;;;;13.83;5.93;;;10.00;92.70;;;;;;4886861;29;20028;-94
2020/12/17 09:51:00;;;;;;;13.57;5.82;;;10.00;92.80;;;;;;4887391;29;20033;-91
2020/12/17 09:53:26;;;;;;;13.75;6.13;;;10.00;92.80;;;;;;4880806;29;20037;-90
2020/12/17 09:55:52;;;;;;;13.90;6.07;;;10.00;92.70;;;;;;4883832;29;20025;-91
2020/12/17 09:58:19;;;;;;;14.38;6.38;;;10.00;92.70;;;;;;4884626;29;20129;-93
2020/12/17 10:01:05;;;;;;;14.43;5.23;;;10.00;92.80;;;;;;4882907;29;20052;-93
2020/12/17 10:03:50;;;;;;;13.23;5.93;;;10.00;92.70;;;;;;4880603;29;20052;-91
2020/12/17 10:06:17;;;;;;;12.97;6.10;;;10.00;92.70;;;;;;4859354;29;20033;-91
2020/12/17 10:08:56;;;;;;;12.80;5.25;;;10.00;92.80;;;;;;4870742;29;20032;-93
2020/12/17 10:11:22;;;;;;;13.70;5.53;;;10.00;92.80;;;;;;4858118;29;20039;-92
2020/12/17 10:13:48;;;;;;;14.57;5.22;;;10.00;92.80;;;;;;4873742;29;20041;-92
2020/12/17 10:16:16;;;;;;;12.07;5.28;;;10.00;92.80;;;;;;4871068;29;20036;-92
2020/12/17 10:18:42;;;;;;;12.23;5.53;;;10.00;92.70;;;;;;4870143;29;20120;-92
2020/12/17 10:21:07;;;;;;;12.23;5.63;;;10.00;92.70;;;;;;4856375;29;20138;-92
2020/12/17 10:23:33;;;;;;;12.30;4.65;;;10.00;92.60;;;;;;4866263;29;20029;-92
2020/12/17 10:25:58;;;;;;;11.75;5.18;;;10.00;92.60;;;;;;4867369;29;20037;-92
2020/12/17 10:28:24;;;;;;;11.95;5.60;;;10.10;92.60;;;;;;4879543;29;20100;-92
2020/12/17 10:31:34;;;;;;;12.23;5.10;;;10.10;92.60;;;;;;4893244;23;20037;-87
2020/12/17 10:34:00;;;;;;;11.93;5.03;;;10.10;92.60;;;;;;4866156;29;20140;-87
2020/12/17 10:36:25;;;;;;;12.47;5.57;;;10.10;92.60;;;;;;4867072;29;20029;-88
2020/12/17 10:38:51;;;;;;;12.77;5.50;;;10.10;92.60;;;;;;4867043;29;20025;-87
2020/12/17 10:41:23;;;;;;;13.23;5.00;;;10.10;92.60;;;;;;4884240;29;20044;-86
2020/12/17 10:43:49;;;;;;;10.63;4.55;;;10.10;92.60;;;;;;4866415;29;20040;-88
2020/12/17 10:46:14;;;;;;;11.50;4.90;;;10.10;92.50;;;;;;4876750;29;20036;-87
2020/12/17 10:48:40;;;;;;;11.48;4.80;;;10.10;92.50;;;;;;4866763;29;20101;-88
2020/12/17 10:51:05;;;;;;;12.27;4.95;;;10.10;92.60;;;;;;4865803;29;20041;-86
2020/12/17 10:53:31;;;;;;;12.23;5.10;;;10.10;92.50;;;;;;4869245;29;20387;-87
2020/12/17 10:55:57;;;;;;;11.83;5.03;;;10.20;92.50;;;;;;4869806;29;20186;-89
2020/12/17 10:58:22;;;;;;;13.67;5.63;;;10.20;92.40;;;;;;4869041;29;20025;-91
2020/12/17 11:00:48;;;;;;;12.40;5.93;;;10.20;92.40;;;;;;4871499;29;20060;-80
2020/12/17 11:03:13;;;;;;;13.80;5.30;;;10.10;92.50;;;;;;4883905;29;20491;-78
2020/12/17 11:05:39;;;;;;;21.40;6.32;;;10.20;92.50;;;;;;4868316;29;20033;-77
2020/12/17 11:08:05;;;;;;;15.50;5.57;;;10.30;92.40;;;;;;4883695;29;20033;-79
2020/12/17 11:10:31;;;;;;;14.25;5.55;;;10.40;92.10;;;;;;4885360;29;20061;-79
2020/12/17 11:12:56;;;;;;;22.77;5.90;;;10.40;92.10;;;;;;4884821;29;20492;-79
2020/12/17 11:15:22;;;;;;;11.95;4.78;;;10.40;92.10;;;;;;4885400;29;20028;-78
2020/12/17 11:17:48;;;;;;;11.48;4.75;;;10.50;92.00;;;;;;4886279;29;20040;-80
2020/12/17 11:20:16;;;;;;;9.88;4.80;;;10.40;91.90;;;;;;4886613;29;20017;-81
2020/12/17 11:22:41;;;;;;;12.48;4.95;;;10.50;91.90;;;;;;4868994;29;20144;-79
2020/12/17 11:25:07;;;;;;;10.07;4.10;;;10.50;91.90;;;;;;4885548;29;20064;-80
2020/12/17 11:27:32;;;;;;;11.23;4.43;;;10.50;91.90;;;;;;4885620;29;20040;-78
2020/12/17 11:29:58;;;;;;;10.93;4.30;;;10.50;91.80;;;;;;4885643;29;20063;-80
2020/12/17 11:32:24;;;;;;;11.95;4.15;;;10.50;91.90;;;;;;4881688;29;20049;-77
2020/12/17 11:34:50;;;;;;;10.50;4.22;;;10.40;91.90;;;;;;4865466;29;20399;-79
2020/12/17 11:37:16;;;;;;;10.57;4.55;;;10.50;91.80;;;;;;4869192;29;20088;-81
2020/12/17 11:39:42;;;;;;;11.25;4.70;;;10.40;91.80;;;;;;4887085;29;20104;-77
2020/12/17 11:42:08;;;;;;;10.88;4.80;;;10.50;91.80;;;;;;4880928;29;20025;-78
2020/12/17 11:44:33;;;;;;;8.90;4.45;;;10.50;91.80;;;;;;4865568;29;20029;-88
2020/12/17 11:46:59;;;;;;;7.25;3.88;;;10.50;91.80;;;;;;4866952;29;20037;-89
2020/12/17 11:49:24;;;;;;;12.43;4.97;;;10.50;91.80;;;;;;4868894;29;20058;-91
2020/12/17 11:51:54;;;;;;;11.27;4.68;;;10.40;91.80;;;;;;4869592;29;20041;-88
2020/12/17 11:54:19;;;;;;;;;;;10.40;91.80;;;;;;4864990;29;20093;-88
2020/12/17 11:56:46;;;;;;;12.35;5.00;;;10.40;91.80;;;;;;4865123;29;19915;-89
2020/12/17 11:59:12;;;;;;;11.10;4.28;;;10.40;91.80;;;;;;4865966;29;20119;-84
2020/12/17 12:01:41;;;;;;;10.45;4.40;;;10.40;91.80;;;;;;4878467;29;20033;-80
2020/12/17 12:04:07;;;;;;;11.45;4.30;;;10.40;91.70;;;;;;4885460;29;20045;-80
2020/12/17 12:06:33;;;;;;;11.75;3.97;;;10.40;91.70;;;;;;4902315;29;20040;-86
2020/12/17 12:08:59;;;;;;;11.73;4.30;;;10.40;91.80;;;;;;4880808;29;20406;-87
2020/12/17 12:11:24;;;;;;;10.60;3.95;;;10.40;91.70;;;;;;4882335;29;20033;-88
2020/12/17 12:13:50;;;;;;;12.35;4.43;;;10.40;91.70;;;;;;4880657;29;20033;-86
2020/12/17 12:16:15;;;;;;;13.77;4.30;;;10.40;91.70;;;;;;4863234;29;20033;-88
2020/12/17 12:18:41;;;;;;;10.10;4.30;;;10.40;91.80;;;;;;4866151;29;20037;-80
2020/12/17 12:21:11;;;;;;;10.55;4.28;;;10.40;91.80;;;;;;4866309;29;20120;-87
2020/12/17 12:23:37;;;;;;;9.35;4.05;;;10.40;91.70;;;;;;4865926;29;20056;-88
2020/12/17 12:26:03;;;;;;;10.90;4.03;;;10.40;91.70;;;;;;4865113;29;20041;-88
2020/12/17 12:28:28;;;;;;;10.50;4.20;;;10.40;91.70;;;;;;4866031;29;20636;-87
2020/12/17 12:30:54;;;;;;;9.73;4.20;;;10.40;91.70;;;;;;4865480;29;20085;-88
2020/12/17 12:33:20;;;;;;;12.50;4.50;;;10.40;91.60;;;;;;4888336;29;20052;-88
2020/12/17 12:35:45;;;;;;;9.63;3.97;;;10.40;91.50;;;;;;4852613;29;20120;-88
2020/12/17 12:38:11;;;;;;;11.65;3.72;;;10.40;91.50;;;;;;4846083;29;20022;-88
2020/12/17 12:40:36;;;;;;;13.30;3.60;;;10.40;91.60;;;;;;4864128;29;20109;-88
2020/12/17 12:43:02;;;;;;;7.88;3.15;;;10.50;91.60;;;;;;4845872;29;20029;-86
2020/12/17 12:45:28;;;;;;;9.15;3.33;;;10.50;91.50;;;;;;4845743;29;20037;-88